sensor_id;sensor_type;location;lat;lon;timestamp;temperature;humidity
30379;DHT22;17168;49.164;9.060;2023-04-24T00:00:55;12.80;93.90
30379;DHT22;17168;49.164;9.060;2023-04-24T00:03:33;12.70;94.10
30379;DHT22;17168;49.164;9.060;2023-04-24T00:06:05;12.70;94.20
30379;DHT22;17168;49.164;9.060;2023-04-24T00:08:40;12.70;94.20
30379;DHT22;17168;49.164;9.060;2023-04-24T00:11:12;12.70;94.20
30379;DHT22;17168;49.164;9.060;2023-04-24T00:13:44;12.70;94.20
30379;DHT22;17168;49.164;9.060;2023-04-24T00:16:19;12.70;94.10
30379;DHT22;17168;49.164;9.060;2023-04-24T00:18:51;12.80;94.10
30379;DHT22;17168;49.164;9.060;2023-04-24T00:21:24;12.80;94.00
30379;DHT22;17168;49.164;9.060;2023-04-24T00:23:57;12.80;93.90
30379;DHT22;17168;49.164;9.060;2023-04-24T00:26:29;12.70;94.00
30379;DHT22;17168;49.164;9.060;2023-04-24T00:29:02;12.80;94.00
30379;DHT22;17168;49.164;9.060;2023-04-24T00:31:36;12.70;93.90
30379;DHT22;17168;49.164;9.060;2023-04-24T00:34:09;12.80;94.00
30379;DHT22;17168;49.164;9.060;2023-04-24T00:36:42;12.70;94.00
30379;DHT22;17168;49.164;9.060;2023-04-24T00:39:14;12.70;94.00
30379;DHT22;17168;49.164;9.060;2023-04-24T00:41:46;12.70;94.10
30379;DHT22;17168;49.164;9.060;2023-04-24T00:44:19;12.70;94.20
30379;DHT22;17168;49.164;9.060;2023-04-24T00:46:55;12.70;94.20
30379;DHT22;17168;49.164;9.060;2023-04-24T00:49:27;12.70;94.40
30379;DHT22;17168;49.164;9.060;2023-04-24T00:51:59;12.70;94.50
30379;DHT22;17168;49.164;9.060;2023-04-24T00:54:31;12.70;94.50
30379;DHT22;17168;49.164;9.060;2023-04-24T00:57:04;12.70;94.60
30379;DHT22;17168;49.164;9.060;2023-04-24T00:59:36;12.80;94.70
30379;DHT22;17168;49.164;9.060;2023-04-24T01:02:11;12.70;94.60
30379;DHT22;17168;49.164;9.060;2023-04-24T01:04:44;12.80;94.70
30379;DHT22;17168;49.164;9.060;2023-04-24T01:07:18;12.80;94.80
30379;DHT22;17168;49.164;9.060;2023-04-24T01:09:53;12.70;94.90
30379;DHT22;17168;49.164;9.060;2023-04-24T01:12:25;12.70;94.90
30379;DHT22;17168;49.164;9.060;2023-04-24T01:14:57;12.80;95.10
30379;DHT22;17168;49.164;9.060;2023-04-24T01:17:32;12.80;95.20
30379;DHT22;17168;49.164;9.060;2023-04-24T01:20:05;12.80;95.30
30379;DHT22;17168;49.164;9.060;2023-04-24T01:22:40;12.80;95.40
30379;DHT22;17168;49.164;9.060;2023-04-24T01:25:13;12.80;95.70
30379;DHT22;17168;49.164;9.060;2023-04-24T01:27:45;12.80;95.80
30379;DHT22;17168;49.164;9.060;2023-04-24T01:30:18;12.80;95.90
30379;DHT22;17168;49.164;9.060;2023-04-24T01:32:50;12.80;96.00
30379;DHT22;17168;49.164;9.060;2023-04-24T01:35:23;12.80;96.10
30379;DHT22;17168;49.164;9.060;2023-04-24T01:37:58;12.80;96.20
30379;DHT22;17168;49.164;9.060;2023-04-24T01:40:31;12.70;96.20
30379;DHT22;17168;49.164;9.060;2023-04-24T01:43:03;12.70;96.30
30379;DHT22;17168;49.164;9.060;2023-04-24T01:45:35;12.70;96.40
30379;DHT22;17168;49.164;9.060;2023-04-24T01:48:07;12.70;96.50
30379;DHT22;17168;49.164;9.060;2023-04-24T01:50:40;12.70;96.60
30379;DHT22;17168;49.164;9.060;2023-04-24T01:53:14;12.70;96.80
30379;DHT22;17168;49.164;9.060;2023-04-24T01:55:47;12.60;96.60
30379;DHT22;17168;49.164;9.060;2023-04-24T01:58:19;12.60;96.50
30379;DHT22;17168;49.164;9.060;2023-04-24T02:00:51;12.70;96.50
30379;DHT22;17168;49.164;9.060;2023-04-24T02:03:23;12.70;96.30
30379;DHT22;17168;49.164;9.060;2023-04-24T02:05:56;12.70;96.30
30379;DHT22;17168;49.164;9.060;2023-04-24T02:08:30;12.70;96.30
30379;DHT22;17168;49.164;9.060;2023-04-24T02:11:02;12.70;96.20
30379;DHT22;17168;49.164;9.060;2023-04-24T02:13:35;12.70;96.10
30379;DHT22;17168;49.164;9.060;2023-04-24T02:16:07;12.70;96.10
30379;DHT22;17168;49.164;9.060;2023-04-24T02:18:39;12.70;96.10
30379;DHT22;17168;49.164;9.060;2023-04-24T02:21:11;12.70;96.20
30379;DHT22;17168;49.164;9.060;2023-04-24T02:23:46;12.60;96.20
30379;DHT22;17168;49.164;9.060;2023-04-24T02:26:18;12.60;96.30
30379;DHT22;17168;49.164;9.060;2023-04-24T02:28:51;12.60;96.40
30379;DHT22;17168;49.164;9.060;2023-04-24T02:31:23;12.60;96.50
30379;DHT22;17168;49.164;9.060;2023-04-24T02:33:55;12.60;96.50
30379;DHT22;17168;49.164;9.060;2023-04-24T02:36:27;12.60;96.60
30379;DHT22;17168;49.164;9.060;2023-04-24T02:39:02;12.50;96.80
30379;DHT22;17168;49.164;9.060;2023-04-24T02:41:35;12.50;96.90
30379;DHT22;17168;49.164;9.060;2023-04-24T02:44:07;12.50;96.90
30379;DHT22;17168;49.164;9.060;2023-04-24T02:46:39;12.50;96.90
30379;DHT22;17168;49.164;9.060;2023-04-24T02:49:13;12.50;97.00
30379;DHT22;17168;49.164;9.060;2023-04-24T02:51:45;12.40;97.00
30379;DHT22;17168;49.164;9.060;2023-04-24T02:54:19;12.40;96.90
30379;DHT22;17168;49.164;9.060;2023-04-24T02:56:51;12.40;96.90
30379;DHT22;17168;49.164;9.060;2023-04-24T02:59:24;12.40;96.90
30379;DHT22;17168;49.164;9.060;2023-04-24T03:01:56;12.30;96.90
30379;DHT22;17168;49.164;9.060;2023-04-24T03:04:28;12.20;97.00
30379;DHT22;17168;49.164;9.060;2023-04-24T03:07:00;12.20;97.10
30379;DHT22;17168;49.164;9.060;2023-04-24T03:09:35;12.20;97.20
30379;DHT22;17168;49.164;9.060;2023-04-24T03:12:07;12.20;97.30
30379;DHT22;17168;49.164;9.060;2023-04-24T03:14:39;12.20;97.30
30379;DHT22;17168;49.164;9.060;2023-04-24T03:17:11;12.20;97.40
30379;DHT22;17168;49.164;9.060;2023-04-24T03:19:43;12.20;97.50
30379;DHT22;17168;49.164;9.060;2023-04-24T03:22:16;12.20;97.50
30379;DHT22;17168;49.164;9.060;2023-04-24T03:24:51;12.20;97.60
30379;DHT22;17168;49.164;9.060;2023-04-24T03:27:23;12.30;97.70
30379;DHT22;17168;49.164;9.060;2023-04-24T03:29:55;12.30;97.70
30379;DHT22;17168;49.164;9.060;2023-04-24T03:32:27;12.30;97.80
30379;DHT22;17168;49.164;9.060;2023-04-24T03:35:00;12.30;97.90
30379;DHT22;17168;49.164;9.060;2023-04-24T03:37:32;12.30;98.00
30379;DHT22;17168;49.164;9.060;2023-04-24T03:40:08;12.30;98.10
30379;DHT22;17168;49.164;9.060;2023-04-24T03:42:40;12.30;98.30
30379;DHT22;17168;49.164;9.060;2023-04-24T03:45:12;12.30;98.40
30379;DHT22;17168;49.164;9.060;2023-04-24T03:47:44;12.30;98.50
30379;DHT22;17168;49.164;9.060;2023-04-24T03:50:16;12.30;98.60
30379;DHT22;17168;49.164;9.060;2023-04-24T03:52:49;12.30;98.70
30379;DHT22;17168;49.164;9.060;2023-04-24T03:55:23;12.30;98.90
30379;DHT22;17168;49.164;9.060;2023-04-24T03:57:55;12.30;99.00
30379;DHT22;17168;49.164;9.060;2023-04-24T04:00:27;12.30;99.00
30379;DHT22;17168;49.164;9.060;2023-04-24T04:03:00;12.30;99.10
30379;DHT22;17168;49.164;9.060;2023-04-24T04:05:33;12.20;99.50
30379;DHT22;17168;49.164;9.060;2023-04-24T04:08:05;12.20;99.90
30379;DHT22;17168;49.164;9.060;2023-04-24T04:10:39;12.10;99.90
30379;DHT22;17168;49.164;9.060;2023-04-24T04:13:12;12.00;99.90
30379;DHT22;17168;49.164;9.060;2023-04-24T04:15:44;11.90;99.90
30379;DHT22;17168;49.164;9.060;2023-04-24T04:18:16;11.70;99.90
30379;DHT22;17168;49.164;9.060;2023-04-24T04:20:48;11.60;99.90
30379;DHT22;17168;49.164;9.060;2023-04-24T04:23:20;11.50;99.90
30379;DHT22;17168;49.164;9.060;2023-04-24T04:25:55;11.40;99.90
30379;DHT22;17168;49.164;9.060;2023-04-24T04:28:27;11.30;99.90
30379;DHT22;17168;49.164;9.060;2023-04-24T04:30:59;11.20;99.90
30379;DHT22;17168;49.164;9.060;2023-04-24T04:33:31;11.10;99.90
30379;DHT22;17168;49.164;9.060;2023-04-24T04:36:03;11.00;99.90
30379;DHT22;17168;49.164;9.060;2023-04-24T04:38:36;11.00;99.90
30379;DHT22;17168;49.164;9.060;2023-04-24T04:41:11;11.00;99.90
30379;DHT22;17168;49.164;9.060;2023-04-24T04:43:43;11.00;99.90
30379;DHT22;17168;49.164;9.060;2023-04-24T04:46:15;10.80;99.90
30379;DHT22;17168;49.164;9.060;2023-04-24T04:48:48;10.80;99.90
30379;DHT22;17168;49.164;9.060;2023-04-24T04:51:20;10.70;99.90
30379;DHT22;17168;49.164;9.060;2023-04-24T04:53:52;10.70;99.90
30379;DHT22;17168;49.164;9.060;2023-04-24T04:56:27;10.60;99.90
30379;DHT22;17168;49.164;9.060;2023-04-24T04:58:59;10.50;99.90
30379;DHT22;17168;49.164;9.060;2023-04-24T05:01:31;10.50;99.90
30379;DHT22;17168;49.164;9.060;2023-04-24T05:04:04;10.40;99.90
30379;DHT22;17168;49.164;9.060;2023-04-24T05:06:36;10.40;99.90
30379;DHT22;17168;49.164;9.060;2023-04-24T05:09:08;10.40;99.90
30379;DHT22;17168;49.164;9.060;2023-04-24T05:11:44;10.30;99.90
30379;DHT22;17168;49.164;9.060;2023-04-24T05:14:16;10.30;99.90
30379;DHT22;17168;49.164;9.060;2023-04-24T05:16:49;10.30;99.90
30379;DHT22;17168;49.164;9.060;2023-04-24T05:19:22;10.20;99.90
30379;DHT22;17168;49.164;9.060;2023-04-24T05:21:54;10.20;99.90
30379;DHT22;17168;49.164;9.060;2023-04-24T05:24:26;10.20;99.90
30379;DHT22;17168;49.164;9.060;2023-04-24T05:27:01;10.10;99.90
30379;DHT22;17168;49.164;9.060;2023-04-24T05:29:34;10.20;99.90
30379;DHT22;17168;49.164;9.060;2023-04-24T05:32:06;10.20;99.90
30379;DHT22;17168;49.164;9.060;2023-04-24T05:34:38;10.10;99.90
30379;DHT22;17168;49.164;9.060;2023-04-24T05:37:10;10.10;99.90
30379;DHT22;17168;49.164;9.060;2023-04-24T05:39:42;10.10;99.90
30379;DHT22;17168;49.164;9.060;2023-04-24T05:42:20;10.20;99.90
30379;DHT22;17168;49.164;9.060;2023-04-24T05:44:52;10.20;99.90
30379;DHT22;17168;49.164;9.060;2023-04-24T05:47:28;10.20;99.90
30379;DHT22;17168;49.164;9.060;2023-04-24T05:50:00;10.30;99.90
30379;DHT22;17168;49.164;9.060;2023-04-24T05:52:32;10.30;99.90
30379;DHT22;17168;49.164;9.060;2023-04-24T05:55:05;10.40;99.90
30379;DHT22;17168;49.164;9.060;2023-04-24T05:57:40;10.40;99.90
30379;DHT22;17168;49.164;9.060;2023-04-24T06:00:13;10.40;99.90
30379;DHT22;17168;49.164;9.060;2023-04-24T06:02:45;10.50;99.90
30379;DHT22;17168;49.164;9.060;2023-04-24T06:05:18;10.50;99.90
30379;DHT22;17168;49.164;9.060;2023-04-24T06:07:51;10.50;99.90
30379;DHT22;17168;49.164;9.060;2023-04-24T06:10:23;10.50;99.90
30379;DHT22;17168;49.164;9.060;2023-04-24T06:12:58;10.60;99.90
30379;DHT22;17168;49.164;9.060;2023-04-24T06:15:33;10.60;99.90
30379;DHT22;17168;49.164;9.060;2023-04-24T06:18:05;10.60;99.90
30379;DHT22;17168;49.164;9.060;2023-04-24T06:20:38;10.70;99.90
30379;DHT22;17168;49.164;9.060;2023-04-24T06:23:10;10.70;99.90
30379;DHT22;17168;49.164;9.060;2023-04-24T06:25:42;10.70;99.90
30379;DHT22;17168;49.164;9.060;2023-04-24T06:28:17;10.80;99.90
30379;DHT22;17168;49.164;9.060;2023-04-24T06:30:49;10.80;99.90
30379;DHT22;17168;49.164;9.060;2023-04-24T06:33:21;10.90;99.90
30379;DHT22;17168;49.164;9.060;2023-04-24T06:35:54;10.90;99.90
30379;DHT22;17168;49.164;9.060;2023-04-24T06:38:26;10.90;99.90
30379;DHT22;17168;49.164;9.060;2023-04-24T06:40:59;10.90;99.90
30379;DHT22;17168;49.164;9.060;2023-04-24T06:43:33;11.00;99.90
30379;DHT22;17168;49.164;9.060;2023-04-24T06:46:05;11.00;99.90
30379;DHT22;17168;49.164;9.060;2023-04-24T06:48:38;11.10;99.90
30379;DHT22;17168;49.164;9.060;2023-04-24T06:51:10;11.20;99.90
30379;DHT22;17168;49.164;9.060;2023-04-24T06:53:42;11.20;99.90
30379;DHT22;17168;49.164;9.060;2023-04-24T06:56:14;11.30;99.90
30379;DHT22;17168;49.164;9.060;2023-04-24T06:58:50;11.30;99.90
30379;DHT22;17168;49.164;9.060;2023-04-24T07:01:23;11.40;99.90
30379;DHT22;17168;49.164;9.060;2023-04-24T07:03:55;11.40;99.90
30379;DHT22;17168;49.164;9.060;2023-04-24T07:06:27;11.40;99.90
30379;DHT22;17168;49.164;9.060;2023-04-24T07:08:59;11.40;99.90
30379;DHT22;17168;49.164;9.060;2023-04-24T07:11:33;11.40;99.90
30379;DHT22;17168;49.164;9.060;2023-04-24T07:14:08;11.40;99.90
30379;DHT22;17168;49.164;9.060;2023-04-24T07:16:40;11.40;99.90
30379;DHT22;17168;49.164;9.060;2023-04-24T07:19:13;11.50;99.90
30379;DHT22;17168;49.164;9.060;2023-04-24T07:21:45;11.50;99.90
30379;DHT22;17168;49.164;9.060;2023-04-24T07:24:17;11.50;99.90
30379;DHT22;17168;49.164;9.060;2023-04-24T07:26:53;11.50;99.90
30379;DHT22;17168;49.164;9.060;2023-04-24T07:29:28;11.50;99.90
30379;DHT22;17168;49.164;9.060;2023-04-24T07:32:00;11.50;99.90
30379;DHT22;17168;49.164;9.060;2023-04-24T07:34:35;11.50;99.90
30379;DHT22;17168;49.164;9.060;2023-04-24T07:37:07;11.50;99.30
30379;DHT22;17168;49.164;9.060;2023-04-24T07:39:39;11.50;98.60
30379;DHT22;17168;49.164;9.060;2023-04-24T07:42:11;11.50;98.00
30379;DHT22;17168;49.164;9.060;2023-04-24T07:44:45;11.60;97.90
30379;DHT22;17168;49.164;9.060;2023-04-24T07:47:19;11.60;98.20
30379;DHT22;17168;49.164;9.060;2023-04-24T07:49:51;11.60;98.40
30379;DHT22;17168;49.164;9.060;2023-04-24T07:52:24;11.60;97.60
30379;DHT22;17168;49.164;9.060;2023-04-24T07:54:56;11.60;96.80
30379;DHT22;17168;49.164;9.060;2023-04-24T07:57:32;11.60;96.20
30379;DHT22;17168;49.164;9.060;2023-04-24T08:00:08;11.60;95.40
30379;DHT22;17168;49.164;9.060;2023-04-24T08:02:41;11.60;95.10
30379;DHT22;17168;49.164;9.060;2023-04-24T08:05:13;11.60;94.70
30379;DHT22;17168;49.164;9.060;2023-04-24T08:07:46;11.60;95.00
30379;DHT22;17168;49.164;9.060;2023-04-24T08:10:20;11.70;95.10
30379;DHT22;17168;49.164;9.060;2023-04-24T08:12:53;11.70;95.00
30379;DHT22;17168;49.164;9.060;2023-04-24T08:15:28;11.70;94.90
30379;DHT22;17168;49.164;9.060;2023-04-24T08:18:00;11.70;94.80
30379;DHT22;17168;49.164;9.060;2023-04-24T08:20:32;11.70;93.90
30379;DHT22;17168;49.164;9.060;2023-04-24T08:23:04;11.70;94.10
30379;DHT22;17168;49.164;9.060;2023-04-24T08:25:37;11.70;94.20
30379;DHT22;17168;49.164;9.060;2023-04-24T08:28:09;11.70;93.40
30379;DHT22;17168;49.164;9.060;2023-04-24T08:30:48;11.70;92.90
30379;DHT22;17168;49.164;9.060;2023-04-24T08:33:26;11.70;93.00
30379;DHT22;17168;49.164;9.060;2023-04-24T08:35:58;11.70;93.30
30379;DHT22;17168;49.164;9.060;2023-04-24T08:38:32;11.70;93.40
30379;DHT22;17168;49.164;9.060;2023-04-24T08:41:05;11.70;93.60
30379;DHT22;17168;49.164;9.060;2023-04-24T08:43:39;11.70;93.90
30379;DHT22;17168;49.164;9.060;2023-04-24T08:46:15;11.70;94.10
30379;DHT22;17168;49.164;9.060;2023-04-24T08:48:49;11.60;94.30
30379;DHT22;17168;49.164;9.060;2023-04-24T08:51:22;11.70;93.90
30379;DHT22;17168;49.164;9.060;2023-04-24T08:53:57;11.70;93.60
30379;DHT22;17168;49.164;9.060;2023-04-24T08:56:29;11.60;93.40
30379;DHT22;17168;49.164;9.060;2023-04-24T08:59:04;11.50;93.20
30379;DHT22;17168;49.164;9.060;2023-04-24T09:01:40;11.50;93.50
30379;DHT22;17168;49.164;9.060;2023-04-24T09:04:12;11.50;93.50
30379;DHT22;17168;49.164;9.060;2023-04-24T09:06:48;11.50;93.80
30379;DHT22;17168;49.164;9.060;2023-04-24T09:09:21;11.50;94.30
30379;DHT22;17168;49.164;9.060;2023-04-24T09:11:54;11.60;93.70
30379;DHT22;17168;49.164;9.060;2023-04-24T09:14:27;11.70;93.20
30379;DHT22;17168;49.164;9.060;2023-04-24T09:17:03;11.70;93.00
30379;DHT22;17168;49.164;9.060;2023-04-24T09:19:35;11.80;91.90
30379;DHT22;17168;49.164;9.060;2023-04-24T09:22:07;11.80;91.90
30379;DHT22;17168;49.164;9.060;2023-04-24T09:24:41;12.00;92.80
30379;DHT22;17168;49.164;9.060;2023-04-24T09:27:13;12.10;93.10
30379;DHT22;17168;49.164;9.060;2023-04-24T09:29:54;12.20;92.40
30379;DHT22;17168;49.164;9.060;2023-04-24T09:32:29;12.30;91.30
30379;DHT22;17168;49.164;9.060;2023-04-24T09:35:08;12.30;90.80
30379;DHT22;17168;49.164;9.060;2023-04-24T09:37:42;12.30;90.60
30379;DHT22;17168;49.164;9.060;2023-04-24T09:40:16;12.30;90.20
30379;DHT22;17168;49.164;9.060;2023-04-24T09:42:53;12.30;89.70
30379;DHT22;17168;49.164;9.060;2023-04-24T09:45:27;12.30;88.00
30379;DHT22;17168;49.164;9.060;2023-04-24T09:48:02;12.30;86.50
30379;DHT22;17168;49.164;9.060;2023-04-24T09:50:35;12.40;87.10
30379;DHT22;17168;49.164;9.060;2023-04-24T09:53:07;12.40;85.00
30379;DHT22;17168;49.164;9.060;2023-04-24T09:55:45;12.40;83.70
30379;DHT22;17168;49.164;9.060;2023-04-24T09:58:18;12.40;83.50
30379;DHT22;17168;49.164;9.060;2023-04-24T10:00:53;12.30;83.50
30379;DHT22;17168;49.164;9.060;2023-04-24T10:03:29;12.30;83.10
30379;DHT22;17168;49.164;9.060;2023-04-24T10:06:03;12.30;83.50
30379;DHT22;17168;49.164;9.060;2023-04-24T10:08:41;12.20;84.20
30379;DHT22;17168;49.164;9.060;2023-04-24T10:11:13;12.20;84.20
30379;DHT22;17168;49.164;9.060;2023-04-24T10:13:45;12.10;83.70
30379;DHT22;17168;49.164;9.060;2023-04-24T10:16:17;12.10;83.70
30379;DHT22;17168;49.164;9.060;2023-04-24T10:18:54;12.00;83.80
30379;DHT22;17168;49.164;9.060;2023-04-24T10:21:28;12.10;83.60
30379;DHT22;17168;49.164;9.060;2023-04-24T10:24:00;12.00;84.20
30379;DHT22;17168;49.164;9.060;2023-04-24T10:26:35;12.10;84.80
30379;DHT22;17168;49.164;9.060;2023-04-24T10:29:08;12.10;83.90
30379;DHT22;17168;49.164;9.060;2023-04-24T10:31:44;12.10;84.00
30379;DHT22;17168;49.164;9.060;2023-04-24T10:34:23;12.10;84.00
30379;DHT22;17168;49.164;9.060;2023-04-24T10:36:56;12.10;83.60
30379;DHT22;17168;49.164;9.060;2023-04-24T10:39:29;12.10;83.20
30379;DHT22;17168;49.164;9.060;2023-04-24T10:42:16;12.20;84.50
30379;DHT22;17168;49.164;9.060;2023-04-24T10:44:48;12.30;85.70
30379;DHT22;17168;49.164;9.060;2023-04-24T10:47:21;12.40;85.70
30379;DHT22;17168;49.164;9.060;2023-04-24T10:49:59;12.50;85.30
30379;DHT22;17168;49.164;9.060;2023-04-24T10:52:44;12.60;84.80
30379;DHT22;17168;49.164;9.060;2023-04-24T10:55:16;12.70;84.60
30379;DHT22;17168;49.164;9.060;2023-04-24T10:58:02;12.90;83.60
30379;DHT22;17168;49.164;9.060;2023-04-24T11:00:37;13.00;81.60
30379;DHT22;17168;49.164;9.060;2023-04-24T11:03:23;13.00;79.30
30379;DHT22;17168;49.164;9.060;2023-04-24T11:06:00;13.00;78.90
30379;DHT22;17168;49.164;9.060;2023-04-24T11:08:39;13.00;78.70
30379;DHT22;17168;49.164;9.060;2023-04-24T11:11:13;13.00;78.90
30379;DHT22;17168;49.164;9.060;2023-04-24T11:14:04;13.00;78.00
30379;DHT22;17168;49.164;9.060;2023-04-24T11:16:42;13.00;77.40
30379;DHT22;17168;49.164;9.060;2023-04-24T11:19:21;12.90;77.60
30379;DHT22;17168;49.164;9.060;2023-04-24T11:21:59;12.80;77.80
30379;DHT22;17168;49.164;9.060;2023-04-24T11:24:39;12.70;78.90
30379;DHT22;17168;49.164;9.060;2023-04-24T11:27:13;12.50;80.00
30379;DHT22;17168;49.164;9.060;2023-04-24T11:29:47;12.40;81.00
30379;DHT22;17168;49.164;9.060;2023-04-24T11:32:25;12.30;82.10
30379;DHT22;17168;49.164;9.060;2023-04-24T11:34:59;12.10;83.10
30379;DHT22;17168;49.164;9.060;2023-04-24T11:37:37;12.00;85.00
30379;DHT22;17168;49.164;9.060;2023-04-24T11:40:10;11.90;87.00
30379;DHT22;17168;49.164;9.060;2023-04-24T11:42:45;11.80;88.30
30379;DHT22;17168;49.164;9.060;2023-04-24T11:45:18;11.90;90.00
30379;DHT22;17168;49.164;9.060;2023-04-24T11:47:51;11.90;90.30
30379;DHT22;17168;49.164;9.060;2023-04-24T11:50:25;11.90;90.70
30379;DHT22;17168;49.164;9.060;2023-04-24T11:53:00;12.00;90.90
30379;DHT22;17168;49.164;9.060;2023-04-24T11:55:33;12.20;91.60
30379;DHT22;17168;49.164;9.060;2023-04-24T11:58:05;12.30;91.80
30379;DHT22;17168;49.164;9.060;2023-04-24T12:00:38;12.50;91.20
30379;DHT22;17168;49.164;9.060;2023-04-24T12:03:11;12.50;90.20
30379;DHT22;17168;49.164;9.060;2023-04-24T12:05:44;12.60;89.10
30379;DHT22;17168;49.164;9.060;2023-04-24T12:08:29;12.80;88.30
30379;DHT22;17168;49.164;9.060;2023-04-24T12:11:05;12.90;87.20
30379;DHT22;17168;49.164;9.060;2023-04-24T12:13:41;12.90;86.40
30379;DHT22;17168;49.164;9.060;2023-04-24T12:16:13;12.90;85.20
30379;DHT22;17168;49.164;9.060;2023-04-24T12:18:46;12.80;84.70
30379;DHT22;17168;49.164;9.060;2023-04-24T12:21:19;12.80;85.10
30379;DHT22;17168;49.164;9.060;2023-04-24T12:23:57;12.80;85.90
30379;DHT22;17168;49.164;9.060;2023-04-24T12:26:29;12.80;86.10
30379;DHT22;17168;49.164;9.060;2023-04-24T12:29:03;13.10;87.10
30379;DHT22;17168;49.164;9.060;2023-04-24T12:31:42;13.50;87.80
30379;DHT22;17168;49.164;9.060;2023-04-24T12:34:18;14.00;87.90
30379;DHT22;17168;49.164;9.060;2023-04-24T12:36:51;14.30;86.70
30379;DHT22;17168;49.164;9.060;2023-04-24T12:39:26;14.30;83.00
30379;DHT22;17168;49.164;9.060;2023-04-24T12:42:03;14.30;82.70
30379;DHT22;17168;49.164;9.060;2023-04-24T12:44:35;14.60;82.70
30379;DHT22;17168;49.164;9.060;2023-04-24T12:47:08;14.80;81.60
30379;DHT22;17168;49.164;9.060;2023-04-24T12:49:49;15.10;80.10
30379;DHT22;17168;49.164;9.060;2023-04-24T12:52:25;15.40;76.10
30379;DHT22;17168;49.164;9.060;2023-04-24T12:55:00;15.50;75.40
30379;DHT22;17168;49.164;9.060;2023-04-24T12:57:32;15.40;74.00
30379;DHT22;17168;49.164;9.060;2023-04-24T13:00:06;15.40;74.30
30379;DHT22;17168;49.164;9.060;2023-04-24T13:02:42;15.50;73.60
30379;DHT22;17168;49.164;9.060;2023-04-24T13:05:14;15.30;72.30
30379;DHT22;17168;49.164;9.060;2023-04-24T13:07:47;15.10;72.10
30379;DHT22;17168;49.164;9.060;2023-04-24T13:10:22;14.80;72.10
30379;DHT22;17168;49.164;9.060;2023-04-24T13:12:54;14.50;72.50
30379;DHT22;17168;49.164;9.060;2023-04-24T13:15:27;14.20;73.40
30379;DHT22;17168;49.164;9.060;2023-04-24T13:17:59;14.00;74.60
30379;DHT22;17168;49.164;9.060;2023-04-24T13:20:31;13.70;75.50
30379;DHT22;17168;49.164;9.060;2023-04-24T13:23:04;13.60;76.50
30379;DHT22;17168;49.164;9.060;2023-04-24T13:25:39;13.40;77.10
30379;DHT22;17168;49.164;9.060;2023-04-24T13:28:11;13.30;77.90
30379;DHT22;17168;49.164;9.060;2023-04-24T13:30:43;13.30;78.20
30379;DHT22;17168;49.164;9.060;2023-04-24T13:33:15;13.20;78.80
30379;DHT22;17168;49.164;9.060;2023-04-24T13:35:47;13.10;79.20
30379;DHT22;17168;49.164;9.060;2023-04-24T13:38:20;13.10;79.50
30379;DHT22;17168;49.164;9.060;2023-04-24T13:40:55;13.10;79.70
30379;DHT22;17168;49.164;9.060;2023-04-24T13:43:28;13.20;79.80
30379;DHT22;17168;49.164;9.060;2023-04-24T13:46:00;13.20;79.80
30379;DHT22;17168;49.164;9.060;2023-04-24T13:48:34;13.20;78.50
30379;DHT22;17168;49.164;9.060;2023-04-24T13:51:07;13.20;77.50
30379;DHT22;17168;49.164;9.060;2023-04-24T13:53:39;13.30;78.10
30379;DHT22;17168;49.164;9.060;2023-04-24T13:56:14;13.60;78.10
30379;DHT22;17168;49.164;9.060;2023-04-24T13:58:46;13.70;77.20
30379;DHT22;17168;49.164;9.060;2023-04-24T14:01:19;14.00;76.90
30379;DHT22;17168;49.164;9.060;2023-04-24T14:03:51;14.10;76.20
30379;DHT22;17168;49.164;9.060;2023-04-24T14:06:24;14.20;75.30
30379;DHT22;17168;49.164;9.060;2023-04-24T14:08:56;14.20;74.10
30379;DHT22;17168;49.164;9.060;2023-04-24T14:11:31;14.10;74.10
30379;DHT22;17168;49.164;9.060;2023-04-24T14:14:03;14.00;73.70
30379;DHT22;17168;49.164;9.060;2023-04-24T14:16:36;13.90;73.20
30379;DHT22;17168;49.164;9.060;2023-04-24T14:19:08;13.90;73.10
30379;DHT22;17168;49.164;9.060;2023-04-24T14:21:40;13.70;72.90
30379;DHT22;17168;49.164;9.060;2023-04-24T14:24:12;13.70;72.70
30379;DHT22;17168;49.164;9.060;2023-04-24T14:26:47;13.60;72.20
30379;DHT22;17168;49.164;9.060;2023-04-24T14:29:19;13.60;72.50
30379;DHT22;17168;49.164;9.060;2023-04-24T14:31:51;13.70;72.50
30379;DHT22;17168;49.164;9.060;2023-04-24T14:34:24;13.70;71.80
30379;DHT22;17168;49.164;9.060;2023-04-24T14:36:56;13.70;71.70
30379;DHT22;17168;49.164;9.060;2023-04-24T14:39:28;13.70;71.80
30379;DHT22;17168;49.164;9.060;2023-04-24T14:42:03;13.60;71.70
30379;DHT22;17168;49.164;9.060;2023-04-24T14:44:35;13.60;72.00
30379;DHT22;17168;49.164;9.060;2023-04-24T14:47:07;13.60;72.30
30379;DHT22;17168;49.164;9.060;2023-04-24T14:49:39;13.60;72.80
30379;DHT22;17168;49.164;9.060;2023-04-24T14:52:12;13.60;72.60
30379;DHT22;17168;49.164;9.060;2023-04-24T14:54:44;13.60;72.20
30379;DHT22;17168;49.164;9.060;2023-04-24T14:57:18;13.60;72.10
30379;DHT22;17168;49.164;9.060;2023-04-24T14:59:51;13.80;72.70
30379;DHT22;17168;49.164;9.060;2023-04-24T15:02:23;13.90;73.00
30379;DHT22;17168;49.164;9.060;2023-04-24T15:04:55;14.10;73.10
30379;DHT22;17168;49.164;9.060;2023-04-24T15:07:28;14.20;72.90
30379;DHT22;17168;49.164;9.060;2023-04-24T15:10:00;14.20;72.30
30379;DHT22;17168;49.164;9.060;2023-04-24T15:12:35;14.20;71.40
30379;DHT22;17168;49.164;9.060;2023-04-24T15:15:09;14.10;70.70
30379;DHT22;17168;49.164;9.060;2023-04-24T15:17:41;14.10;71.00
30379;DHT22;17168;49.164;9.060;2023-04-24T15:20:13;14.00;70.80
30379;DHT22;17168;49.164;9.060;2023-04-24T15:22:47;14.00;71.10
30379;DHT22;17168;49.164;9.060;2023-04-24T15:25:19;14.00;71.40
30379;DHT22;17168;49.164;9.060;2023-04-24T15:27:54;14.00;71.70
30379;DHT22;17168;49.164;9.060;2023-04-24T15:30:26;13.90;71.60
30379;DHT22;17168;49.164;9.060;2023-04-24T15:32:59;13.90;72.00
30379;DHT22;17168;49.164;9.060;2023-04-24T15:35:33;13.80;72.30
30379;DHT22;17168;49.164;9.060;2023-04-24T15:38:05;13.80;72.30
30379;DHT22;17168;49.164;9.060;2023-04-24T15:40:37;13.70;72.30
30379;DHT22;17168;49.164;9.060;2023-04-24T15:43:12;13.70;72.00
30379;DHT22;17168;49.164;9.060;2023-04-24T15:45:44;13.60;72.20
30379;DHT22;17168;49.164;9.060;2023-04-24T15:48:16;13.60;72.40
30379;DHT22;17168;49.164;9.060;2023-04-24T15:50:48;13.60;72.90
30379;DHT22;17168;49.164;9.060;2023-04-24T15:53:21;13.70;73.40
30379;DHT22;17168;49.164;9.060;2023-04-24T15:55:54;13.70;72.90
30379;DHT22;17168;49.164;9.060;2023-04-24T15:58:30;13.80;72.60
30379;DHT22;17168;49.164;9.060;2023-04-24T16:01:02;13.80;72.30
30379;DHT22;17168;49.164;9.060;2023-04-24T16:03:35;13.80;72.50
30379;DHT22;17168;49.164;9.060;2023-04-24T16:06:07;13.70;72.40
30379;DHT22;17168;49.164;9.060;2023-04-24T16:08:39;13.70;72.80